logo
Search for airport 
image banner adimage banner adimage banner ad
image banner ad

FYOA - Ondangwa

Located in Ondangwa, Namibia

ICAO - FYOA, IATA - OND

Data provided by Airmate  

General information

Coordinates: S17°52'38" E15°57'0"
Elevation is 3599 feet MSL.
 
View others Airports in Oshikoto

Operational data

Special qualification required
Current time UTC:
Current local time:
Weather
TAF: TAF FYOA 062000Z 0621/0706 26005KT CAVOK
View NOTAMs / SUP AIP / TFR affecting this airport [VIEW]
Communications frequencies: [VIEW]

Runways:

RWY identifierQFULength (ft)Width (ft)SurfaceLDA (ft)
0867°9265148ASP
26246°9265148ASP

Airport contact information

Address: Ondangwa Namibia

Satellite view of FYOA